Time;durP1;ratioP1;P1;durP2;ratioP2;P2;SDS_P1;SDS_P2;PMS_P1;PMS_P2;Temp;Humidity;BMP_temperature;BMP_pressure;BME280_temperature;BME280_humidity;BME280_pressure;Samples;Min_cycle;Max_cycle;Signal;HPM_P1;HPM_P2
2023/01/14 00:01:21;;;;;;;;;2.00;1.00;;;;;20.37;62.53;100275.15;110128;1265;19580;-66
2023/01/14 00:03:48;;;;;;;;;1.00;1.00;;;;;20.36;62.78;100273.16;110015;1265;20373;-67
2023/01/14 00:06:16;;;;;;;;;1.00;1.00;;;;;20.37;62.50;100277.23;110046;1249;21040;-66
2023/01/14 00:08:44;;;;;;;;;2.00;2.00;;;;;20.37;62.52;100277.95;110002;1259;18398;-66
2023/01/14 00:11:11;;;;;;;;;1.00;1.00;;;;;20.37;62.63;100277.78;109872;1259;18676;-67
2023/01/14 00:13:39;;;;;;;;;1.00;1.00;;;;;20.38;62.51;100283.98;109906;1265;22444;-67
2023/01/14 00:16:07;;;;;;;;;1.50;1.50;;;;;20.36;62.50;100285.47;109932;1265;19671;-67
2023/01/14 00:18:34;;;;;;;;;2.00;2.00;;;;;20.36;62.45;100288.06;110061;1256;18614;-68
2023/01/14 00:21:02;;;;;;;;;2.00;2.00;;;;;20.36;62.44;100289.86;110091;1265;19210;-67
2023/01/14 00:23:31;;;;;;;;;2.00;2.00;;;;;20.35;62.25;100291.98;110187;1251;19807;-67
2023/01/14 00:25:59;;;;;;;;;2.00;2.00;;;;;20.35;62.42;100289.40;110105;1257;19364;-67
2023/01/14 00:28:26;;;;;;;;;1.00;1.00;;;;;20.36;62.36;100295.52;110141;1251;21090;-67
2023/01/14 00:30:54;;;;;;;;;1.00;1.00;;;;;20.35;62.42;100294.71;110094;1265;20156;-67
2023/01/14 00:33:22;;;;;;;;;1.00;1.00;;;;;20.34;62.38;100291.69;110024;1264;19935;-67
2023/01/14 00:35:50;;;;;;;;;1.00;1.00;;;;;20.34;62.11;100297.78;110107;1265;19446;-67
2023/01/14 00:38:18;;;;;;;;;1.50;1.50;;;;;20.33;62.10;100299.61;109972;1264;22185;-67
2023/01/14 00:40:45;;;;;;;;;1.00;1.00;;;;;20.33;62.27;100302.95;110098;1250;18658;-66
2023/01/14 00:43:14;;;;;;;;;2.00;2.00;;;;;20.33;62.30;100307.60;109972;1256;19381;-67
2023/01/14 00:45:43;;;;;;;;;4.00;4.00;;;;;20.34;62.34;100307.88;110132;1249;18708;-66
2023/01/14 00:48:11;;;;;;;;;2.00;1.00;;;;;20.34;62.11;100316.08;110034;1256;22578;-68
2023/01/14 00:50:39;;;;;;;;;1.50;1.00;;;;;20.34;62.10;100319.35;110061;1257;23909;-67
2023/01/14 00:53:09;;;;;;;;;2.00;1.00;;;;;20.33;61.90;100324.45;110129;1250;22899;-67
2023/01/14 00:55:36;;;;;;;;;1.00;1.00;;;;;20.32;62.00;100322.96;110171;1265;19347;-67
2023/01/14 00:58:04;;;;;;;;;1.00;1.00;;;;;20.33;62.00;100328.88;110136;1256;19627;-64
2023/01/14 01:00:32;;;;;;;;;1.00;1.00;;;;;20.33;61.90;100327.91;110094;1249;23876;-64
2023/01/14 01:02:59;;;;;;;;;1.00;1.00;;;;;20.34;61.97;100330.27;110113;1250;19954;-66
2023/01/14 01:05:27;;;;;;;;;2.00;2.00;;;;;20.33;61.86;100327.82;109854;1251;19374;-65
2023/01/14 01:07:56;;;;;;;;;2.00;2.00;;;;;20.32;61.73;100331.33;110114;1265;19584;-66
2023/01/14 01:10:24;;;;;;;;;1.00;1.00;;;;;20.31;62.02;100332.91;109998;1250;22520;-69
2023/01/14 01:12:53;;;;;;;;;1.00;1.00;;;;;20.30;61.81;100334.86;109956;1258;20720;-66
2023/01/14 01:15:21;;;;;;;;;1.00;1.00;;;;;20.30;62.03;100337.30;110076;1265;18485;-66
2023/01/14 01:17:48;;;;;;;;;1.00;1.00;;;;;20.29;61.87;100336.36;109879;1261;18697;-68
2023/01/14 01:20:17;;;;;;;;;1.00;1.00;;;;;20.31;61.69;100337.42;109976;1257;22251;-66
2023/01/14 01:22:44;;;;;;;;;1.00;1.00;;;;;20.29;61.58;100336.78;110147;1264;18765;-65
2023/01/14 01:25:12;;;;;;;;;1.00;1.00;;;;;20.30;61.95;100337.63;110029;1250;18646;-66
2023/01/14 01:27:40;;;;;;;;;2.00;1.00;;;;;20.30;61.84;100338.84;110090;1256;20731;-64
2023/01/14 01:30:08;;;;;;;;;1.00;1.00;;;;;20.30;61.65;100339.25;109955;1265;19870;-67
2023/01/14 01:32:36;;;;;;;;;1.00;1.00;;;;;20.30;61.72;100342.48;110041;1265;22165;-65
2023/01/14 01:35:03;;;;;;;;;1.00;1.00;;;;;20.29;61.78;100340.77;110080;1265;19268;-66
2023/01/14 01:37:31;;;;;;;;;1.00;1.00;;;;;20.29;61.70;100341.80;110101;1264;22006;-65
2023/01/14 01:40:02;;;;;;;;;1.00;1.00;;;;;20.30;61.60;100342.33;110052;1265;18651;-68
2023/01/14 01:42:33;;;;;;;;;2.00;1.00;;;;;20.29;61.74;100343.32;110096;1250;19775;-65
2023/01/14 01:45:01;;;;;;;;;2.00;2.00;;;;;20.28;61.63;100347.53;110116;1258;21148;-65
2023/01/14 01:47:28;;;;;;;;;1.00;1.00;;;;;20.27;61.63;100346.27;109983;1265;18647;-68
2023/01/14 01:49:55;;;;;;;;;1.00;1.00;;;;;20.26;61.60;100346.34;110086;1265;19436;-68
2023/01/14 01:52:23;;;;;;;;;1.00;1.00;;;;;20.27;61.67;100347.16;110047;1251;21143;-66
2023/01/14 01:54:50;;;;;;;;;1.00;1.00;;;;;20.28;61.48;100349.41;110073;1251;20139;-66
2023/01/14 01:57:19;;;;;;;;;1.50;1.50;;;;;20.29;61.64;100352.36;110045;1257;19423;-67
2023/01/14 01:59:46;;;;;;;;;1.00;1.00;;;;;20.29;61.36;100356.95;110066;1265;22556;-67
2023/01/14 02:02:14;;;;;;;;;1.00;1.00;;;;;20.28;61.54;100359.38;110022;1250;22998;-67
2023/01/14 02:04:41;;;;;;;;;1.00;1.00;;;;;20.27;61.65;100359.45;110100;1250;22326;-67
2023/01/14 02:07:08;;;;;;;;;1.00;1.00;;;;;20.28;61.42;100360.46;110080;1250;18522;-67
2023/01/14 02:09:36;;;;;;;;;1.00;1.00;;;;;20.28;61.50;100358.66;110046;1265;20118;-66
2023/01/14 02:12:05;;;;;;;;;1.00;1.00;;;;;20.28;61.40;100358.66;110098;1265;20873;-65
2023/01/14 02:14:33;;;;;;;;;1.00;1.00;;;;;20.29;61.46;100359.85;110053;1253;20015;-68
2023/01/14 02:17:00;;;;;;;;;2.00;1.00;;;;;20.28;61.36;100362.44;109923;1266;19304;-66
2023/01/14 02:19:28;;;;;;;;;2.00;1.00;;;;;20.28;61.29;100361.73;110083;1265;19611;-67
2023/01/14 02:21:57;;;;;;;;;2.00;1.00;;;;;20.27;61.20;100364.02;110002;1256;19576;-66
2023/01/14 02:24:24;;;;;;;;;1.00;1.00;;;;;20.27;61.48;100365.88;110071;1253;20115;-65
2023/01/14 02:26:52;;;;;;;;;1.00;1.00;;;;;20.27;61.36;100370.53;110114;1259;20817;-65
2023/01/14 02:29:20;;;;;;;;;1.00;1.00;;;;;20.26;61.26;100372.68;110025;1257;18299;-66
2023/01/14 02:31:48;;;;;;;;;1.50;1.50;;;;;20.26;61.25;100375.23;110115;1265;21234;-67
2023/01/14 02:34:16;;;;;;;;;1.00;1.00;;;;;20.26;61.24;100376.45;110126;1250;20916;-66
2023/01/14 02:36:44;;;;;;;;;1.00;1.00;;;;;20.26;61.21;100375.03;110074;1250;18541;-66
2023/01/14 02:39:12;;;;;;;;;1.00;1.00;;;;;20.25;61.27;100374.55;110027;1251;20051;-67
2023/01/14 02:44:25;;;;;;;;;1.00;1.00;;;;;20.26;61.09;100382.89;110076;1250;18362;-67
2023/01/14 02:46:53;;;;;;;;;1.00;1.00;;;;;20.25;61.15;100387.15;110095;1264;18689;-67
2023/01/14 02:49:20;;;;;;;;;1.00;1.00;;;;;20.24;61.26;100386.35;110106;1265;20785;-66
2023/01/14 02:51:48;;;;;;;;;1.00;1.00;;;;;20.24;61.27;100386.30;110057;1250;20928;-67
2023/01/14 02:54:17;;;;;;;;;1.00;1.00;;;;;20.23;61.25;100385.98;110061;1265;20105;-66
2023/01/14 02:56:44;;;;;;;;;1.00;1.00;;;;;20.23;61.26;100390.27;110097;1250;22531;-70
2023/01/14 02:59:11;;;;;;;;;1.00;1.00;;;;;20.23;61.41;100390.82;110058;1250;21850;-67
2023/01/14 03:01:39;;;;;;;;;1.00;1.00;;;;;20.23;61.10;100385.66;110099;1247;18620;-66
2023/01/14 03:04:06;;;;;;;;;1.00;1.00;;;;;20.24;61.15;100390.02;110077;1251;19596;-67
2023/01/14 03:06:34;;;;;;;;;1.00;1.00;;;;;20.23;61.27;100393.17;110105;1264;18422;-66
2023/01/14 03:09:03;;;;;;;;;1.00;1.00;;;;;20.23;61.31;100397.52;109947;1266;20452;-66
2023/01/14 03:11:30;;;;;;;;;1.00;1.00;;;;;20.23;61.16;100398.98;109920;1252;20978;-66
2023/01/14 03:13:59;;;;;;;;;1.00;1.00;;;;;20.22;61.08;100401.77;109914;1266;18284;-68
2023/01/14 03:16:26;;;;;;;;;1.00;1.00;;;;;20.23;61.20;100402.48;110140;1257;23430;-67
2023/01/14 03:18:54;;;;;;;;;1.00;1.00;;;;;20.24;61.14;100409.61;110097;1264;19655;-66
2023/01/14 03:21:23;;;;;;;;;1.00;1.00;;;;;20.22;61.09;100410.17;110097;1257;19648;-67
2023/01/14 03:23:51;;;;;;;;;1.00;1.00;;;;;20.24;60.93;100415.39;109886;1251;20154;-66
2023/01/14 03:26:19;;;;;;;;;1.00;1.00;;;;;20.23;61.13;100422.52;110071;1250;20834;-65
2023/01/14 03:28:47;;;;;;;;;1.00;1.00;;;;;20.24;61.03;100418.22;110125;1265;18483;-66
2023/01/14 03:31:15;;;;;;;;;1.00;1.00;;;;;20.25;61.13;100426.64;110098;1258;20311;-67
2023/01/14 03:33:43;;;;;;;;;1.00;1.00;;;;;20.24;60.98;100429.05;110093;1251;20841;-67
2023/01/14 03:36:11;;;;;;;;;1.00;1.00;;;;;20.22;60.96;100427.77;110099;1265;19825;-67
2023/01/14 03:38:39;;;;;;;;;1.00;1.00;;;;;20.22;60.97;100431.05;110059;1250;28013;-67
2023/01/14 03:41:06;;;;;;;;;1.00;1.00;;;;;20.23;61.12;100438.38;110132;1265;19366;-67
2023/01/14 03:43:35;;;;;;;;;1.00;1.00;;;;;20.22;60.96;100435.89;110149;1257;19574;-65
2023/01/14 03:46:02;;;;;;;;;1.00;1.00;;;;;20.21;61.01;100434.36;110053;1265;19057;-65
2023/01/14 03:48:29;;;;;;;;;1.00;1.00;;;;;20.22;61.07;100441.54;110070;1265;19347;-67
2023/01/14 03:50:57;;;;;;;;;1.00;1.00;;;;;20.22;61.13;100443.41;109934;1251;18680;-65
2023/01/14 03:53:25;;;;;;;;;1.00;1.00;;;;;20.22;61.13;100444.30;110024;1265;18701;-66
2023/01/14 03:55:53;;;;;;;;;1.00;1.00;;;;;20.23;60.92;100452.02;110139;1250;20745;-67
2023/01/14 03:58:20;;;;;;;;;1.00;1.00;;;;;20.22;60.87;100452.67;110100;1265;19458;-68
2023/01/14 04:00:48;;;;;;;;;1.00;1.00;;;;;20.21;60.94;100461.61;110079;1264;18676;-66
2023/01/14 04:03:15;;;;;;;;;1.00;1.00;;;;;20.21;60.89;100464.13;109989;1265;19446;-67
2023/01/14 04:05:43;;;;;;;;;1.00;1.00;;;;;20.21;61.05;100461.45;110060;1265;18542;-66
2023/01/14 04:08:11;;;;;;;;;1.00;1.00;;;;;20.21;61.03;100458.71;109896;1265;19972;-66
2023/01/14 04:10:39;;;;;;;;;1.00;1.00;;;;;20.21;60.85;100465.95;110112;1250;19746;-67
2023/01/14 04:15:52;;;;;;;;;1.00;1.00;;;;;20.21;61.00;100464.94;110057;1257;19975;-67
2023/01/14 04:18:20;;;;;;;;;1.00;1.00;;;;;20.19;61.01;100462.03;110121;1265;20733;-67
2023/01/14 04:20:47;;;;;;;;;1.00;1.00;;;;;20.20;60.78;100461.79;110065;1265;22507;-68
2023/01/14 04:23:15;;;;;;;;;1.00;1.00;;;;;20.19;60.92;100457.88;110058;1265;22795;-66
2023/01/14 04:25:42;;;;;;;;;1.00;1.00;;;;;20.19;60.98;100455.74;110140;1251;20782;-66
2023/01/14 04:28:10;;;;;;;;;1.00;1.00;;;;;20.19;60.87;100460.47;110055;1265;18279;-66
2023/01/14 04:30:40;;;;;;;;;1.00;1.00;;;;;20.19;60.99;100461.27;109891;1254;18537;-67
2023/01/14 04:33:07;;;;;;;;;1.00;1.00;;;;;20.20;60.96;100463.59;110037;1257;21012;-68
2023/01/14 04:35:35;;;;;;;;;1.00;1.00;;;;;20.20;61.01;100471.96;110046;1265;18550;-67
2023/01/14 04:38:04;;;;;;;;;1.00;1.00;;;;;20.20;60.79;100473.92;109916;1257;18819;-65
2023/01/14 04:40:32;;;;;;;;;1.00;1.00;;;;;20.20;60.84;100486.98;110092;1250;20889;-66
2023/01/14 04:43:00;;;;;;;;;1.00;1.00;;;;;20.20;60.67;100486.95;110020;1265;19574;-67
2023/01/14 04:45:30;;;;;;;;;1.00;1.00;;;;;20.21;60.85;100495.52;110057;1250;20089;-66
2023/01/14 04:47:58;;;;;;;;;1.00;1.00;;;;;20.20;60.72;100498.08;110100;1265;20747;-67
2023/01/14 04:50:33;;;;;;;;;1.00;1.00;;;;;20.19;60.97;100495.06;109898;1265;19821;-66
2023/01/14 04:53:01;;;;;;;;;1.00;1.00;;;;;20.19;60.65;100491.41;110071;1256;18564;-68
2023/01/14 04:55:28;;;;;;;;;1.00;1.00;;;;;20.19;60.84;100491.25;110038;1265;19728;-68
2023/01/14 04:57:56;;;;;;;;;1.00;1.00;;;;;20.19;60.84;100487.14;109900;1252;19803;-67
2023/01/14 05:00:24;;;;;;;;;1.00;1.00;;;;;20.17;60.71;100493.55;110058;1264;19941;-67
2023/01/14 05:02:52;;;;;;;;;1.00;1.00;;;;;20.18;60.72;100503.70;109876;1253;20776;-65
2023/01/14 05:05:20;;;;;;;;;2.00;2.00;;;;;20.20;60.72;100510.22;110085;1265;19539;-66
2023/01/14 05:07:47;;;;;;;;;1.00;1.00;;;;;20.18;60.71;100512.62;110159;1250;18960;-67
2023/01/14 05:10:16;;;;;;;;;1.00;1.00;;;;;20.18;60.86;100512.66;109893;1265;19489;-65
2023/01/14 05:12:55;;;;;;;;;2.00;1.00;;;;;20.18;60.89;100511.53;110031;1251;19859;-66
2023/01/14 05:15:24;;;;;;;;;1.00;1.00;;;;;20.18;60.67;100502.48;110093;1250;20187;-67
2023/01/14 05:17:52;;;;;;;;;1.50;1.00;;;;;20.16;60.67;100506.09;110050;1250;20765;-68
2023/01/14 05:20:19;;;;;;;;;1.00;1.00;;;;;20.16;60.63;100511.15;110091;1250;19751;-66
2023/01/14 05:22:46;;;;;;;;;1.00;1.00;;;;;20.17;60.60;100518.48;110123;1250;21429;-65
2023/01/14 05:25:14;;;;;;;;;1.00;1.00;;;;;20.18;60.68;100519.90;109889;1253;20870;-69
2023/01/14 05:27:42;;;;;;;;;1.00;1.00;;;;;20.17;60.62;100520.35;110067;1251;19902;-66
2023/01/14 05:30:10;;;;;;;;;1.00;1.00;;;;;20.18;60.68;100523.34;110083;1250;18811;-65
2023/01/14 05:32:38;;;;;;;;;1.00;1.00;;;;;20.18;60.59;100523.84;110123;1250;20800;-66
2023/01/14 05:35:06;;;;;;;;;1.00;1.00;;;;;20.17;60.71;100528.48;110120;1250;21352;-68
2023/01/14 05:37:35;;;;;;;;;1.00;1.00;;;;;20.19;60.59;100531.43;110202;1252;20032;-65
2023/01/14 05:40:02;;;;;;;;;1.00;1.00;;;;;20.18;60.64;100534.39;110087;1253;20811;-66
2023/01/14 05:48:01;;;;;;;;;1.00;1.00;;;;;20.17;60.57;100538.17;110066;1265;22240;-65
2023/01/14 05:50:29;;;;;;;;;1.00;1.00;;;;;20.16;60.60;100535.76;110094;1254;18633;-66
2023/01/14 05:52:56;;;;;;;;;1.00;1.00;;;;;20.15;60.53;100537.96;110172;1264;20380;-67
2023/01/14 05:55:24;;;;;;;;;1.00;1.00;;;;;20.16;60.65;100543.13;109992;1258;171856;-66
2023/01/14 05:57:51;;;;;;;;;1.00;1.00;;;;;20.16;60.72;100544.27;110003;1259;18466;-66
2023/01/14 06:08:33;;;;;;;;;1.00;1.00;;;;;20.15;60.49;100555.38;109250;1255;21540;-66
2023/01/14 06:11:01;;;;;;;;;1.00;1.00;;;;;20.14;60.52;100560.60;109220;1270;21480;-68
2023/01/14 06:13:28;;;;;;;;;1.00;1.00;;;;;20.14;60.33;100556.48;109253;1255;19776;-67
2023/01/14 06:15:56;;;;;;;;;2.00;1.00;;;;;20.15;60.55;100555.61;109249;1262;18607;-66
2023/01/14 06:18:23;;;;;;;;;1.00;1.00;;;;;20.14;60.60;100563.28;109477;1269;19413;-67
2023/01/14 06:20:51;;;;;;;;;1.00;1.00;;;;;20.15;60.51;100567.39;109272;1255;19842;-66
2023/01/14 06:23:18;;;;;;;;;1.00;1.00;;;;;20.14;60.51;100564.90;109263;1270;18588;-66
2023/01/14 06:25:46;;;;;;;;;1.00;1.00;;;;;20.15;60.46;100575.05;109222;1254;22654;-66
2023/01/14 06:28:14;;;;;;;;;;;;;;;20.13;60.65;100584.81;109268;1264;18516;-67
2023/01/14 06:30:41;;;;;;;;;1.00;1.00;;;;;20.15;60.64;100592.43;109194;1256;20027;-66
2023/01/14 06:33:09;;;;;;;;;1.00;1.00;;;;;20.14;60.50;100592.73;109306;1254;22672;-67
2023/01/14 06:35:36;;;;;;;;;1.00;1.00;;;;;20.14;60.41;100596.89;109259;1254;19976;-66
2023/01/14 06:38:04;;;;;;;;;1.00;1.00;;;;;20.14;60.48;100599.81;109281;1270;20210;-68
2023/01/14 06:40:32;;;;;;;;;1.00;1.00;;;;;20.14;60.47;100600.48;109607;1265;20760;-65
2023/01/14 06:43:00;;;;;;;;;1.00;1.00;;;;;20.14;60.64;100605.09;110048;1256;23870;-65
2023/01/14 06:45:28;;;;;;;;;1.00;1.00;;;;;20.14;60.52;100604.30;110076;1265;19957;-68
2023/01/14 06:47:56;;;;;;;;;1.00;1.00;;;;;20.13;60.39;100605.33;110082;1250;20827;-64
2023/01/14 06:50:24;;;;;;;;;1.00;1.00;;;;;20.13;60.36;100606.63;110041;1248;19488;-67
2023/01/14 06:52:52;;;;;;;;;1.00;1.00;;;;;20.13;60.33;100602.81;110076;1265;23327;-67
2023/01/14 06:55:20;;;;;;;;;1.00;1.00;;;;;20.14;60.41;100605.05;110014;1265;21053;-66
2023/01/14 06:57:48;;;;;;;;;1.00;1.00;;;;;20.16;60.52;100605.21;110087;1251;22584;-66
2023/01/14 07:00:15;;;;;;;;;1.00;1.00;;;;;20.18;60.22;100606.57;110054;1265;19985;-64
2023/01/14 07:02:42;;;;;;;;;1.00;1.00;;;;;20.19;60.37;100608.46;110050;1265;19378;-67
2023/01/14 07:05:10;;;;;;;;;1.00;1.00;;;;;20.20;60.36;100602.78;110037;1265;18668;-66
2023/01/14 07:07:38;;;;;;;;;1.00;1.00;;;;;20.21;60.41;100608.05;110102;1265;18773;-67
2023/01/14 07:10:05;;;;;;;;;1.00;1.00;;;;;20.24;60.64;100611.52;110059;1250;22093;-68
2023/01/14 07:12:33;;;;;;;;;1.00;1.00;;;;;20.28;60.67;100616.12;109895;1266;22765;-66
2023/01/14 07:15:01;;;;;;;;;1.00;1.00;;;;;20.28;60.51;100619.80;109878;1253;20373;-67
2023/01/14 07:17:28;;;;;;;;;1.00;1.00;;;;;20.28;60.64;100624.46;110006;1258;19831;-69
2023/01/14 07:19:56;;;;;;;;;1.33;1.33;;;;;20.28;60.60;100628.09;110083;1265;22219;-67
2023/01/14 07:22:24;;;;;;;;;1.00;1.00;;;;;20.26;60.82;100634.16;109904;1251;20289;-67
2023/01/14 07:24:52;;;;;;;;;1.00;1.00;;;;;20.23;60.82;100635.73;110068;1256;20699;-67
2023/01/14 07:27:20;;;;;;;;;1.00;1.00;;;;;20.21;61.08;100637.58;110078;1265;18419;-66
2023/01/14 07:29:48;;;;;;;;;1.00;1.00;;;;;20.21;60.81;100649.46;110066;1251;20013;-66
2023/01/14 07:32:15;;;;;;;;;1.00;1.00;;;;;20.20;60.83;100658.98;109872;1265;22002;-66
2023/01/14 07:34:43;;;;;;;;;1.00;1.00;;;;;20.19;60.85;100660.72;110118;1250;19571;-68
2023/01/14 07:37:11;;;;;;;;;1.00;1.00;;;;;20.20;60.97;100664.63;110137;1249;20025;-67
2023/01/14 07:39:38;;;;;;;;;1.00;1.00;;;;;20.18;60.84;100665.77;110077;1265;21047;-68
2023/01/14 07:42:06;;;;;;;;;1.00;1.00;;;;;20.17;60.94;100672.19;110041;1250;18448;-67
2023/01/14 07:44:34;;;;;;;;;2.00;1.00;;;;;20.18;60.86;100669.06;110048;1251;20006;-68
2023/01/14 07:47:03;;;;;;;;;1.00;1.00;;;;;20.16;60.96;100674.98;110065;1250;19648;-71
2023/01/14 07:49:33;;;;;;;;;1.00;1.00;;;;;20.17;60.85;100674.44;110081;1250;22801;-67
2023/01/14 07:52:01;;;;;;;;;1.00;1.00;;;;;20.15;61.09;100672.39;110065;1251;20028;-66
2023/01/14 07:54:29;;;;;;;;;1.00;1.00;;;;;20.15;60.89;100669.33;110062;1251;21277;-66
2023/01/14 07:56:57;;;;;;;;;1.00;1.00;;;;;20.15;60.82;100674.26;109979;1265;18979;-67
2023/01/14 07:59:26;;;;;;;;;1.00;1.00;;;;;20.15;60.80;100670.41;110358;1265;18666;-66
2023/01/14 08:01:53;;;;;;;;;1.00;1.00;;;;;20.15;60.77;100672.97;110094;1265;21891;-67
2023/01/14 08:04:21;;;;;;;;;1.00;1.00;;;;;20.15;60.99;100677.83;110077;1249;18289;-69
2023/01/14 08:06:49;;;;;;;;;1.00;1.00;;;;;20.15;60.86;100680.01;110064;1265;18612;-66
2023/01/14 08:09:18;;;;;;;;;1.00;1.00;;;;;20.18;60.88;100687.19;110075;1265;19445;-68
2023/01/14 08:11:47;;;;;;;;;56.00;46.00;;;;;20.19;60.73;100694.80;110135;1250;22863;-66
2023/01/14 08:14:14;;;;;;;;;47.00;44.00;;;;;20.22;60.89;100695.71;109855;1265;18916;-65
2023/01/14 08:16:43;;;;;;;;;37.00;33.00;;;;;20.24;61.05;100697.17;110047;1265;19411;-67
2023/01/14 08:19:12;;;;;;;;;48.33;41.00;;;;;20.26;61.23;100698.14;110074;1265;19942;-67
2023/01/14 08:21:39;;;;;;;;;46.00;41.00;;;;;20.29;61.44;100698.79;110059;1265;20586;-67
2023/01/14 08:24:06;;;;;;;;;60.00;50.00;;;;;20.33;61.94;100701.27;110068;1251;22129;-66
2023/01/14 08:26:34;;;;;;;;;58.00;48.50;;;;;20.35;62.53;100697.14;110047;1250;21325;-71
2023/01/14 08:29:02;;;;;;;;;57.00;47.50;;;;;20.37;62.44;100702.07;109913;1265;18771;-67
2023/01/14 08:31:31;;;;;;;;;41.00;38.00;;;;;20.41;62.63;100707.94;109964;1250;20660;-69
2023/01/14 08:33:58;;;;;;;;;52.00;46.00;;;;;20.45;62.56;100711.98;110025;1257;18797;-68
2023/01/14 08:36:26;;;;;;;;;48.00;44.00;;;;;20.46;62.94;100709.55;110030;1256;18755;-69
2023/01/14 08:38:53;;;;;;;;;40.00;31.00;;;;;20.46;63.02;100714.79;110041;1249;19358;-69
2023/01/14 08:41:21;;;;;;;;;30.50;25.00;;;;;20.48;63.51;100718.32;110046;1256;22712;-66
2023/01/14 08:43:48;;;;;;;;;25.00;22.00;;;;;20.57;63.02;100727.05;110077;1250;20110;-67
2023/01/14 08:46:16;;;;;;;;;25.00;22.00;;;;;20.60;62.92;100728.64;110055;1265;20704;-66
2023/01/14 08:51:30;;;;;;;;;18.00;17.00;;;;;20.58;63.08;100738.48;110114;1265;18816;-67
2023/01/14 08:54:03;;;;;;;;;15.50;14.50;;;;;20.59;63.10;100737.36;110014;1257;19643;-66
2023/01/14 08:56:30;;;;;;;;;15.00;12.00;;;;;20.58;63.17;100740.11;110081;1256;18990;-67
2023/01/14 08:58:58;;;;;;;;;11.50;11.00;;;;;20.59;63.32;100747.54;110151;1265;20409;-67
2023/01/14 09:01:26;;;;;;;;;12.00;10.00;;;;;20.58;63.72;100744.64;109988;1265;20940;-66
2023/01/14 09:03:57;;;;;;;;;8.67;8.00;;;;;20.61;63.71;100741.46;110011;1251;21556;-67
2023/01/14 09:06:24;;;;;;;;;7.67;7.67;;;;;20.65;63.54;100738.95;110051;1249;20069;-66
2023/01/14 09:17:10;;;;;;;;;7.50;7.50;;;;;20.88;63.43;100750.98;109953;1264;20691;-65
2023/01/14 09:19:37;;;;;;;;;7.00;5.00;;;;;20.98;63.42;100750.88;110115;1265;19563;-67
2023/01/14 09:22:06;;;;;;;;;5.00;5.00;;;;;20.97;63.23;100753.94;110103;1265;19987;-66
2023/01/14 09:24:34;;;;;;;;;4.00;4.00;;;;;20.96;63.61;100760.65;110027;1254;19836;-66
2023/01/14 09:27:01;;;;;;;;;7.50;7.00;;;;;20.96;63.38;100762.46;109781;1250;19861;-66
2023/01/14 09:29:29;;;;;;;;;5.00;5.00;;;;;20.92;63.46;100762.70;109712;1251;20005;-66
2023/01/14 09:31:57;;;;;;;;;4.00;4.00;;;;;20.82;62.81;100764.59;109876;1264;20791;-65
2023/01/14 09:34:25;;;;;;;;;4.00;4.00;;;;;20.78;62.44;100768.54;109872;1253;18661;-67
2023/01/14 09:36:53;;;;;;;;;5.00;4.00;;;;;20.75;61.92;100778.95;109840;1256;20244;-66
2023/01/14 09:39:20;;;;;;;;;4.00;3.00;;;;;20.46;59.21;100777.60;110037;1251;20954;-66
2023/01/14 09:41:48;;;;;;;;;3.00;3.00;;;;;20.10;55.60;100777.45;110071;1264;18648;-69
2023/01/14 09:44:16;;;;;;;;;6.00;6.00;;;;;19.85;53.12;100781.13;109859;1265;18730;-65
2023/01/14 09:46:43;;;;;;;;;3.00;3.00;;;;;19.74;51.32;100773.88;110036;1249;19617;-68
2023/01/14 09:49:11;;;;;;;;;4.00;4.00;;;;;19.90;51.10;100774.23;110046;1250;20001;-66
2023/01/14 09:51:38;;;;;;;;;5.00;5.00;;;;;20.06;51.30;100765.42;110088;1265;18669;-66
2023/01/14 09:54:06;;;;;;;;;2.00;2.00;;;;;20.16;51.64;100765.61;110050;1265;19320;-65
2023/01/14 09:56:33;;;;;;;;;4.00;4.00;;;;;20.22;51.83;100768.85;110056;1251;19755;-68
2023/01/14 09:59:01;;;;;;;;;5.00;4.00;;;;;20.26;52.04;100767.89;110173;1265;21392;-65
2023/01/14 10:01:29;;;;;;;;;2.00;2.00;;;;;20.28;52.38;100767.09;109891;1253;20958;-66
2023/01/14 10:03:56;;;;;;;;;4.00;4.00;;;;;20.28;52.54;100774.39;110078;1265;22868;-66
2023/01/14 10:06:24;;;;;;;;;2.00;2.00;;;;;20.28;53.06;100770.90;110103;1265;18737;-65
2023/01/14 10:08:51;;;;;;;;;4.00;4.00;;;;;20.28;53.31;100766.20;110062;1251;20859;-65
2023/01/14 10:11:19;;;;;;;;;2.00;2.00;;;;;20.28;53.70;100767.99;110076;1249;20950;-66
2023/01/14 10:13:46;;;;;;;;;2.00;2.00;;;;;20.30;54.05;100777.66;110107;1265;22180;-66
2023/01/14 10:16:14;;;;;;;;;2.00;2.00;;;;;20.29;54.38;100777.87;109980;1253;20701;-65
2023/01/14 10:18:41;;;;;;;;;6.00;4.00;;;;;20.29;54.42;100776.74;110068;1265;18419;-65
2023/01/14 10:21:09;;;;;;;;;2.00;2.00;;;;;20.31;54.74;100779.87;110095;1257;18627;-67
2023/01/14 10:23:39;;;;;;;;;2.67;2.00;;;;;20.30;54.81;100774.11;110068;1265;20751;-64
2023/01/14 10:26:07;;;;;;;;;2.00;2.00;;;;;20.32;54.93;100776.11;110738;1250;18454;-66
2023/01/14 10:28:34;;;;;;;;;4.00;2.00;;;;;20.31;55.26;100778.16;110150;1251;20550;-64
2023/01/14 10:31:02;;;;;;;;;4.00;2.00;;;;;20.32;55.18;100776.79;110095;1250;19409;-64
2023/01/14 10:33:29;;;;;;;;;2.00;2.00;;;;;20.32;55.12;100781.02;110068;1265;18689;-64
2023/01/14 10:35:56;;;;;;;;;2.00;2.00;;;;;20.31;55.43;100780.88;110080;1265;18594;-64
2023/01/14 10:38:24;;;;;;;;;2.00;2.00;;;;;20.31;55.70;100769.45;110111;1264;19381;-65
2023/01/14 10:40:51;;;;;;;;;3.00;2.00;;;;;20.32;55.45;100770.84;110149;1265;18474;-65
2023/01/14 10:43:19;;;;;;;;;2.00;2.00;;;;;20.33;55.75;100765.64;110121;1250;23497;-68
2023/01/14 10:45:46;;;;;;;;;1.00;1.00;;;;;20.32;55.78;100761.08;110026;1257;19358;-66
2023/01/14 10:48:14;;;;;;;;;1.00;1.00;;;;;20.32;55.79;100756.02;110024;1264;18864;-65
2023/01/14 10:50:43;;;;;;;;;2.00;2.00;;;;;20.32;56.06;100762.84;110062;1265;22725;-66
2023/01/14 10:53:11;;;;;;;;;4.00;4.00;;;;;20.31;55.93;100756.96;110017;1250;21096;-64
2023/01/14 10:55:38;;;;;;;;;5.00;2.00;;;;;20.31;56.22;100760.64;110177;1251;19681;-65
2023/01/14 10:58:06;;;;;;;;;2.00;2.00;;;;;20.31;56.13;100759.71;110106;1265;24224;-64
2023/01/14 11:00:34;;;;;;;;;2.00;2.00;;;;;20.30;56.17;100753.43;110105;1251;22337;-66
2023/01/14 11:03:01;;;;;;;;;2.00;2.00;;;;;20.30;56.33;100748.20;110110;1250;21557;-65
2023/01/14 11:05:29;;;;;;;;;2.00;2.00;;;;;20.30;56.17;100746.02;110073;1265;18633;-65
2023/01/14 11:07:56;;;;;;;;;2.00;2.00;;;;;20.30;56.34;100745.10;110191;1265;20700;-65
2023/01/14 11:10:24;;;;;;;;;2.00;2.00;;;;;20.30;56.42;100736.21;110061;1264;18443;-66
2023/01/14 11:12:51;;;;;;;;;2.00;2.00;;;;;20.30;56.34;100737.89;110063;1264;18897;-64
2023/01/14 11:15:18;;;;;;;;;1.67;1.67;;;;;20.30;56.27;100739.14;110092;1249;19461;-64
2023/01/14 11:17:46;;;;;;;;;2.00;2.00;;;;;20.29;56.49;100739.98;110111;1251;19936;-65
2023/01/14 11:20:13;;;;;;;;;2.00;1.00;;;;;20.27;56.30;100735.43;110088;1249;21436;-66
2023/01/14 11:22:41;;;;;;;;;2.00;2.00;;;;;20.27;56.39;100743.42;110118;1251;21012;-66
2023/01/14 11:25:08;;;;;;;;;2.00;2.00;;;;;20.26;56.08;100748.26;110112;1265;18360;-66
2023/01/14 11:27:36;;;;;;;;;1.00;1.00;;;;;20.26;56.28;100742.23;110115;1251;18899;-65
2023/01/14 11:30:06;;;;;;;;;2.00;1.00;;;;;20.25;56.23;100735.64;110076;1251;20989;-68
2023/01/14 11:32:34;;;;;;;;;2.00;2.00;;;;;20.26;56.07;100730.09;110008;1250;19708;-67
2023/01/14 11:35:02;;;;;;;;;1.50;1.50;;;;;20.25;56.19;100721.18;110154;1250;20292;-65
2023/01/14 11:37:29;;;;;;;;;2.00;2.00;;;;;20.25;56.01;100718.42;110078;1265;19905;-66
2023/01/14 11:39:57;;;;;;;;;1.00;1.00;;;;;20.23;55.84;100720.23;110091;1265;20414;-65
2023/01/14 11:42:25;;;;;;;;;2.00;2.00;;;;;20.23;56.01;100718.98;110103;1265;18571;-67
2023/01/14 11:44:52;;;;;;;;;1.00;1.00;;;;;20.23;55.93;100714.84;110067;1265;19562;-68
2023/01/14 11:47:20;;;;;;;;;2.00;1.00;;;;;20.23;56.05;100717.73;110089;1250;19873;-66
2023/01/14 11:49:49;;;;;;;;;2.00;2.00;;;;;20.24;56.00;100714.55;110126;1250;18640;-68